x

East Gulf - 208 Mn West Of Naples, Fl (42003) Wave Buoy

12:50am - Sat 31st Jan 2015 All times are EST. -5 hours from GMT.

  • Sig Wave height 3.9ft
  • Swell Direction
  • Peak Period 5s
  • Average Period 4s
  • Wind
    18mph, 22mph gusts
  • Sea Temp 73°f
  • Air Temp 67°f
  • Sea Pressure 1022.7mb
  • East Gulf - 208 Mn West Of Naples, Fl
  • East Gulf - 208 Mn West Of Naples, Fl

More Historic Weather Station data

Upgrade to MSW Pro to gain access to the past 30 days of data for over 8000 Wavebouys and Weather Stations around the globe.

Join Pro

Comparision Forecast

View Surf forecast
   
Sat 01/31 12:50am 4ft 5s 4s 18 22 mph 1022.7mb 73f 67f
Fri 01/30 11:50pm 4ft 5s 4s 18 20 mph 1023.1mb 73f 67f
10:50pm 3.5ft 5s 4s 16 20 mph 1023mb 73f 67f
9:50pm 3.5ft 5s 4s 18 20 mph 1022.8mb 73f 68f
8:50pm 3ft 4s 4s 16 20 mph 1022.3mb 73f 69f
7:50pm 2.5ft 4s 4s 16 20 mph 1022mb 73f 69f
6:50pm 1.3ft 6s 4s 20 25 mph 1021.6mb 73f 69f
5:50pm 1.3ft 6s 4s 9 11 mph 1021.6mb 73f 70f
4:50pm 1.3ft 5s 4s 9
mph
1021.7mb 73f 70f
3:50pm 1.3ft 5s 5s 7 9 mph 1021.6mb 73f 69f
2:50pm 1.3ft 5s 4s 4 7 mph 1022.1mb 73f 69f
1:50pm 1.3ft 5s 5s 7 9 mph 1022.7mb 73f 69f
12:50pm 1.6ft 5s 4s 4 7 mph 1023.6mb 73f 69f
11:50am 1.6ft 5s 5s 7
mph
1024.4mb 73f 68f
10:50am 1.6ft 5s 5s 4 7 mph 1024.7mb 73f 68f
9:50am 2ft 5s 4s 7 11 mph 1024.7mb 72f 68f
8:50am 1.6ft 5s 5s 9 11 mph 1024.2mb 72f 68f
7:50am 2ft 5s 5s 7 9 mph 1023.8mb 72f 67f
6:50am 2.5ft 6s 5s 4 7 mph 1023.4mb 72f 68f
5:50am 2ft 5s 5s 2 4 mph 1022.9mb 72f 67f
4:50am 2.5ft 5s 5s  -  2 mph 1022.7mb 72f 67f
3:50am 2.5ft 5s 5s 2
mph
1022.9mb 72f 68f
2:50am 2.5ft 5s 5s 2
mph
1023.2mb 72f 68f
1:50am 2.5ft 6s 5s 4 7 mph 1023.5mb 72f 68f
12:50am 2.5ft 6s 5s 4 7 mph 1023.6mb 72f 68f
Thu 01/29 11:50pm 2.5ft 6s 5s 7 11 mph 1023.7mb 72f 68f
10:50pm 2.5ft 6s 5s 4 7 mph 1024mb 72f 68f
9:50pm 3ft 6s 5s 7 9 mph 1024.2mb 72f 68f
8:50pm 3ft 6s 5s 4 9 mph 1024.1mb 72f 68f
7:50pm 3.5ft 6s 5s 4 7 mph 1023.6mb 72f 68f
6:50pm 3.5ft 5s 5s 7 11 mph 1023.2mb 72f 68f
5:50pm 3ft 6s 5s 9 11 mph 1023.1mb 73f 68f
4:50pm 3.5ft 5s  -  11 13 mph 1022.6mb 73f 67f
3:50pm 3.5ft 6s 5s 11 13 mph 1022.4mb 73f 67f
2:50pm 3ft 5s 4s 11 13 mph 1022.6mb 73f 67f
1:50pm 3ft 5s 4s 9 13 mph 1023.6mb 73f 66f
12:50pm 3.5ft 5s 4s 11 16 mph 1024.6mb 72f 66f
11:50am 3ft 5s 4s 13 18 mph 1025.2mb 72f 66f
10:50am 3ft 5s 4s 13 16 mph 1025.4mb 72f 65f
9:50am 3ft 5s 4s 13 18 mph 1025.1mb 72f 65f
8:50am 3ft 5s 4s 16 20 mph 1024.3mb 72f 65f
7:50am 3ft 5s 4s 16 20 mph 1024.1mb 72f 65f
6:50am 3ft 5s 4s 16 22 mph 1023.1mb 72f 64f
5:50am 3ft 5s 4s 16 20 mph 1022.8mb 72f 64f
4:50am 3ft 5s 4s 16 18 mph 1022.2mb 72f 63f
3:50am 3ft 5s 4s 16 20 mph 1022mb 72f 63f
2:50am 3.5ft 5s 4s 13 18 mph 1022.5mb 72f 64f
1:50am 3ft 6s 4s 13 18 mph 1023.2mb 72f 64f
12:50am 3ft 5s 4s 13 18 mph 1023.3mb 72f 64f
Wed 01/28 11:50pm 3ft 6s 4s 13 18 mph 1023.9mb 73f 65f
10:50pm 3.5ft 5s 4s 13 18 mph 1023.9mb 73f 65f
9:50pm 3.5ft 5s 4s 16 18 mph 1023.3mb 73f 65f
8:50pm 3.5ft 5s 4s 16 20 mph 1023mb 73f 65f
7:50pm 3.5ft 6s 5s 16 18 mph 1022.8mb 73f 65f
6:50pm 3.5ft 6s 5s 16 18 mph 1022.2mb 73f 66f
5:50pm 4ft 6s 5s 16 18 mph 1021.9mb 73f 66f
4:50pm 4ft 6s 5s 16 20 mph 1022.1mb 73f 66f
3:50pm 4ft 6s 5s 16 20 mph 1021.3mb 73f 66f
2:50pm 4ft 6s 5s 16 18 mph 1021.5mb 73f 67f
1:50pm 4ft 6s 5s 13 18 mph 1022.1mb 73f 67f
12:50pm 4.5ft 6s 5s 13 18 mph 1022.7mb 73f 67f
11:50am 4.5ft 6s 5s 13 18 mph 1023.2mb 73f 68f
10:50am 5ft 6s 5s 13 18 mph 1023.1mb 73f 68f
9:50am 4.5ft 7s 5s 16 20 mph 1022.6mb 73f 69f
8:50am 5ft 6s 5s 16 20 mph 1021.8mb 73f 69f
7:50am 6ft 6s 5s 16 20 mph 1021.2mb 73f 69f
6:50am 5.5ft 7s 5s 20 25 mph 1020.4mb 73f 69f
5:50am 5.5ft 7s 5s 18 22 mph 1019.7mb 73f 69f
4:50am 5.5ft 7s 5s 20 25 mph 1019.2mb 73f 69f
3:50am 6ft 6s 5s 20 25 mph 1019.1mb 73f 69f
2:50am 6ft 7s 5s 20 22 mph 1019mb 73f 69f
1:50am 5.5ft 7s 5s 20 22 mph 1018.9mb 72f 69f
12:50am 6ft 7s 5s 20 25 mph 1018.9mb 73f 70f
Tue 01/27 11:50pm 5.5ft 7s 5s 18 22 mph 1019mb 73f 70f
10:50pm 5ft 7s 5s 18 22 mph 1019.1mb 73f 71f
9:50pm 5ft 7s 5s 18 22 mph 1018.7mb 73f 70f
8:50pm 5ft 6s 5s 18 22 mph 1018.6mb 73f 70f
7:50pm 5ft 6s 5s 20 22 mph 1018.2mb 73f 70f
6:50pm 5ft 6s 5s 16 20 mph 1018mb 73f 70f
5:50pm 5ft 6s 5s 16 20 mph 1017.9mb 73f 70f
4:50pm 5ft 8s 5s 16 20 mph 1017.8mb 73f 69f
3:50pm 5ft 9s 6s 16 20 mph 1017.6mb 73f 68f
2:50pm 5ft 7s 5s 16 20 mph 1017.6mb 73f 68f
1:50pm 5ft 8s 6s 16 18 mph 1018.2mb 73f 67f
12:50pm 5ft 8s 6s 11 16 mph 1019.1mb 73f 67f
11:50am 6ft 7s 6s 13 16 mph 1019.8mb 73f 67f
10:50am 6ft 7s 6s 11 16 mph 1020mb 73f 67f
9:50am 6ft 7s 6s 13 18 mph 1019.7mb 73f 66f
8:50am 7ft 7s 6s 13 22 mph 1019.1mb 73f 66f
7:50am 6.5ft 7s 6s 16 22 mph 1018.7mb 73f 66f
6:50am 7ft 8s 6s 20 25 mph 1018.1mb 73f 66f